createdAt,value
2023-02-25T00:01:08.564Z,96816.28
2023-02-25T00:03:36.183Z,96820.59
2023-02-25T00:06:03.965Z,96825.03
2023-02-25T00:08:30.670Z,96820.78
2023-02-25T00:11:02.465Z,96820.63
2023-02-25T00:13:29.748Z,96817.22
2023-02-25T00:15:58.324Z,96824.75
2023-02-25T00:18:28.807Z,96816.25
2023-02-25T00:20:55.403Z,96834.38
2023-02-25T00:23:22.087Z,96825.88
2023-02-25T00:25:49.066Z,96820.63
2023-02-25T00:28:16.229Z,96823.03
2023-02-25T00:30:42.936Z,96829.22
2023-02-25T00:33:11.279Z,96825.72
2023-02-25T00:35:41.508Z,96825.50
2023-02-25T00:38:15.615Z,96831.00
2023-02-25T00:40:43.043Z,96830.25
2023-02-25T00:43:09.789Z,96830.22
2023-02-25T00:45:39.710Z,96826.09
2023-02-25T00:48:07.140Z,96824.09
2023-02-25T00:50:34.753Z,96830.16
2023-02-25T00:53:01.543Z,96828.63
2023-02-25T00:55:33.795Z,96827.78
2023-02-25T00:58:04.818Z,96831.25
2023-02-25T01:00:35.911Z,96832.88
2023-02-25T01:03:07.464Z,96826.19
2023-02-25T01:05:34.203Z,96834.72
2023-02-25T01:08:01.008Z,96836.63
2023-02-25T01:10:28.382Z,96827.84
2023-02-25T01:12:55.080Z,96836.63
2023-02-25T01:15:21.638Z,96841.91
2023-02-25T01:17:48.181Z,96836.63
2023-02-25T01:20:19.943Z,96847.03
2023-02-25T01:22:46.623Z,96860.97
2023-02-25T01:25:15.919Z,96849.03
2023-02-25T01:27:42.458Z,96855.19
2023-02-25T01:30:09.945Z,96863.78
2023-02-25T01:32:37.043Z,96853.38
2023-02-25T01:35:04.668Z,96863.66
2023-02-25T01:37:31.297Z,96871.34
2023-02-25T01:39:57.921Z,96869.78
2023-02-25T01:42:24.728Z,96866.06
2023-02-25T01:45:22.496Z,96855.75
2023-02-25T01:47:57.165Z,96850.34
2023-02-25T01:50:27.387Z,96847.75
2023-02-25T01:52:58.883Z,96860.84
2023-02-25T01:55:25.636Z,96869.47
2023-02-25T01:57:52.413Z,96866.88
2023-02-25T02:00:19.660Z,96864.25
2023-02-25T02:02:49.791Z,96871.88
2023-02-25T02:05:17.075Z,96858.81
2023-02-25T02:07:43.855Z,96865.75
2023-02-25T02:10:11.214Z,96858.00
2023-02-25T02:12:42.994Z,96860.59
2023-02-25T02:15:12.966Z,96858.81
2023-02-25T02:17:39.635Z,96856.97
2023-02-25T02:20:20.945Z,96853.63
2023-02-25T02:23:24.518Z,96856.16
2023-02-25T02:26:19.042Z,96857.97
2023-02-25T02:29:08.878Z,96864.91
2023-02-25T02:31:46.779Z,96864.84
2023-02-25T02:34:28.824Z,96870.91
2023-02-25T02:37:20.228Z,96859.69
2023-02-25T02:39:59.114Z,96870.97
2023-02-25T02:42:40.752Z,96857.94
2023-02-25T02:45:17.558Z,96868.31
2023-02-25T02:47:49.862Z,96867.50
2023-02-25T02:50:25.955Z,96857.94
2023-02-25T02:52:56.476Z,96862.38
2023-02-25T02:55:30.070Z,96860.72
2023-02-25T02:58:22.381Z,96850.03
2023-02-25T03:00:55.853Z,96855.41
2023-02-25T03:03:36.378Z,96868.41
2023-02-25T03:06:08.102Z,96858.97
2023-02-25T03:08:44.814Z,96861.50
2023-02-25T03:11:11.932Z,96861.53
2023-02-25T03:13:38.896Z,96857.09
2023-02-25T03:16:09.873Z,96855.44
2023-02-25T03:18:44.244Z,96854.66
2023-02-25T03:21:20.682Z,96851.25
2023-02-25T03:23:48.566Z,96859.78
2023-02-25T03:26:24.460Z,96864.09
2023-02-25T03:28:51.374Z,96864.00
2023-02-25T03:31:24.719Z,96869.28
2023-02-25T03:34:12.426Z,96858.91
2023-02-25T03:36:43.154Z,96872.75
2023-02-25T03:39:15.332Z,96868.31
2023-02-25T03:41:46.647Z,96876.16
2023-02-25T03:44:19.921Z,96878.03
2023-02-25T03:46:47.616Z,96877.97
2023-02-25T03:49:24.485Z,96886.63
2023-02-25T03:51:54.322Z,96885.81
2023-02-25T03:54:21.030Z,96898.63
2023-02-25T03:56:50.191Z,96902.16
2023-02-25T03:59:18.926Z,96910.66
2023-02-25T04:01:48.953Z,96907.19
2023-02-25T04:04:15.819Z,96907.13
2023-02-25T04:06:42.488Z,96907.22
2023-02-25T04:09:09.175Z,96908.78
2023-02-25T04:11:36.300Z,96914.16
2023-02-25T04:14:02.955Z,96908.06
2023-02-25T04:16:29.653Z,96919.25
2023-02-25T04:18:56.327Z,96918.41
2023-02-25T04:21:35.593Z,96926.09
2023-02-25T04:24:03.757Z,96927.94
2023-02-25T04:26:30.304Z,96930.53
2023-02-25T04:28:56.805Z,96941.78
2023-02-25T04:31:23.540Z,96936.47
2023-02-25T04:33:50.792Z,96939.97
2023-02-25T04:36:33.820Z,96938.97
2023-02-25T04:39:02.776Z,96948.59
2023-02-25T04:41:32.182Z,96943.44
2023-02-25T04:43:59.688Z,96945.94
2023-02-25T04:46:26.980Z,96944.28
2023-02-25T04:48:53.914Z,96965.03
2023-02-25T04:51:21.308Z,96954.63
2023-02-25T04:53:48.176Z,96957.34
2023-02-25T04:56:15.179Z,96949.44
2023-02-25T04:58:41.825Z,96938.22
2023-02-25T05:01:09.470Z,96948.66
2023-02-25T05:03:36.925Z,96942.50
2023-02-25T05:06:04.722Z,96950.31
2023-02-25T05:08:32.209Z,96942.47
2023-02-25T05:10:59.142Z,96939.06
2023-02-25T05:13:27.003Z,96945.03
2023-02-25T05:15:53.574Z,96945.22
2023-02-25T05:18:20.204Z,96946.84
2023-02-25T05:20:47.706Z,96955.66
2023-02-25T05:23:14.580Z,96962.56
2023-02-25T05:25:43.989Z,96952.16
2023-02-25T05:28:12.058Z,96966.59
2023-02-25T05:30:40.108Z,96964.19
2023-02-25T05:33:07.363Z,96965.03
2023-02-25T05:35:34.024Z,96972.75
2023-02-25T05:38:01.448Z,96972.84
2023-02-25T05:40:28.087Z,96978.13
2023-02-25T05:42:54.794Z,96985.03
2023-02-25T05:45:21.456Z,96989.28
2023-02-25T05:47:48.145Z,96988.56
2023-02-25T05:50:14.648Z,96987.63
2023-02-25T05:52:41.496Z,96986.97
2023-02-25T05:55:11.397Z,96987.19
2023-02-25T05:57:38.477Z,97005.28
2023-02-25T06:00:10.105Z,97000.19
2023-02-25T06:02:37.219Z,96991.50
2023-02-25T06:05:04.071Z,96996.75
2023-02-25T06:07:33.316Z,97001.06
2023-02-25T06:10:01.118Z,97002.75
2023-02-25T06:12:33.152Z,97001.97
2023-02-25T06:15:00.501Z,97007.03
2023-02-25T06:17:27.092Z,97013.09
2023-02-25T06:19:53.809Z,97014.75
2023-02-25T06:22:21.899Z,97008.75
2023-02-25T06:24:48.592Z,97014.84
2023-02-25T06:27:16.232Z,97014.81
2023-02-25T06:29:42.986Z,97014.66
2023-02-25T06:32:13.616Z,97019.78
2023-02-25T06:34:40.820Z,97014.75
2023-02-25T06:37:08.013Z,97016.47
2023-02-25T06:39:34.849Z,97017.41
2023-02-25T06:42:02.490Z,97033.88
2023-02-25T06:44:29.699Z,97030.38
2023-02-25T06:46:56.411Z,97031.22
2023-02-25T06:49:23.627Z,97033.78
2023-02-25T06:51:50.822Z,97036.41
2023-02-25T06:54:18.353Z,97041.63
2023-02-25T06:56:45.484Z,97044.31
2023-02-25T06:59:12.209Z,97046.69
2023-02-25T07:01:39.055Z,97045.88
2023-02-25T07:04:05.892Z,97047.50
2023-02-25T07:06:32.804Z,97046.66
2023-02-25T07:08:59.502Z,97056.16
2023-02-25T07:11:26.157Z,97054.41
2023-02-25T07:13:52.777Z,97058.84
2023-02-25T07:16:19.666Z,97059.72
2023-02-25T07:18:46.853Z,97065.75
2023-02-25T07:21:14.038Z,97065.78
2023-02-25T07:23:41.641Z,97070.94
2023-02-25T07:26:11.682Z,97073.50
2023-02-25T07:28:38.952Z,97075.97
2023-02-25T07:31:26.979Z,97077.59
2023-02-25T07:33:57.206Z,97077.56
2023-02-25T07:36:23.745Z,97080.88
2023-02-25T07:38:50.546Z,97071.50
2023-02-25T07:41:19.570Z,97074.81
2023-02-25T07:43:46.334Z,97074.81
2023-02-25T07:46:16.172Z,97077.50
2023-02-25T07:48:42.915Z,97079.22
2023-02-25T07:51:14.186Z,97090.41
2023-02-25T07:53:40.988Z,97080.00
2023-02-25T07:56:09.227Z,97085.00
2023-02-25T07:58:36.294Z,97082.38
2023-02-25T08:01:08.956Z,97086.66
2023-02-25T08:03:36.096Z,97086.66
2023-02-25T08:06:07.836Z,97092.66
2023-02-25T08:08:36.328Z,97094.88
2023-02-25T08:11:12.025Z,97108.03
2023-02-25T08:13:39.397Z,97102.00
2023-02-25T08:16:08.690Z,97104.66
2023-02-25T08:18:36.446Z,97106.38
2023-02-25T08:21:04.581Z,97094.28
2023-02-25T08:23:31.739Z,97093.31
2023-02-25T08:25:59.153Z,97099.59
2023-02-25T08:28:27.829Z,97099.63
2023-02-25T08:30:54.780Z,97106.72
2023-02-25T08:33:21.660Z,97127.06
2023-02-25T08:35:48.231Z,97131.03
2023-02-25T08:38:14.979Z,97133.88
2023-02-25T08:40:41.886Z,97136.50
2023-02-25T08:43:10.848Z,97139.31
2023-02-25T08:45:39.135Z,97143.59
2023-02-25T08:48:06.048Z,97136.81
2023-02-25T08:50:32.811Z,97140.06
2023-02-25T08:52:59.413Z,97138.22
2023-02-25T08:55:26.453Z,97154.56
2023-02-25T08:57:54.640Z,97152.78
2023-02-25T09:00:21.942Z,97147.41
2023-02-25T09:02:49.514Z,97155.28
2023-02-25T09:05:16.860Z,97156.69
2023-02-25T09:07:44.342Z,97158.31
2023-02-25T09:10:13.081Z,97166.94
2023-02-25T09:12:41.127Z,97166.88
2023-02-25T09:15:08.701Z,97167.78
2023-02-25T09:17:35.298Z,97172.13
2023-02-25T09:20:05.797Z,97165.81
2023-02-25T09:22:33.865Z,97168.44
2023-02-25T09:25:00.865Z,97171.13
2023-02-25T09:27:28.526Z,97174.59
2023-02-25T09:29:55.191Z,97185.00
2023-02-25T09:32:23.160Z,97187.56
2023-02-25T09:34:50.273Z,97185.91
2023-02-25T09:37:19.691Z,97186.81
2023-02-25T09:39:46.976Z,97191.16
2023-02-25T09:42:21.067Z,97196.44
2023-02-25T09:44:50.864Z,97199.94
2023-02-25T09:47:40.639Z,97206.84
2023-02-25T09:50:14.765Z,97204.25
2023-02-25T09:53:08.336Z,97209.28
2023-02-25T09:55:40.933Z,97207.59
2023-02-25T09:58:15.312Z,97215.41
2023-02-25T10:01:02.065Z,97214.50
2023-02-25T10:03:39.126Z,97223.03
2023-02-25T10:06:22.255Z,97218.81
2023-02-25T10:09:10.195Z,97227.44
2023-02-25T10:11:39.917Z,97234.47
2023-02-25T10:14:15.561Z,97241.28
2023-02-25T10:17:03.330Z,97240.53
2023-02-25T10:19:52.050Z,97245.75
2023-02-25T10:22:43.687Z,97244.06
2023-02-25T10:25:19.110Z,97254.53
2023-02-25T10:27:57.544Z,97255.31
2023-02-25T10:30:31.605Z,97253.50
2023-02-25T10:33:04.011Z,97258.69
2023-02-25T10:35:34.626Z,97269.91
2023-02-25T10:38:01.526Z,97264.69
2023-02-25T10:40:30.039Z,97270.59
2023-02-25T10:43:01.893Z,97266.16
2023-02-25T10:45:31.142Z,97265.91
2023-02-25T10:48:14.209Z,97254.97
2023-02-25T10:50:46.151Z,97267.00
2023-02-25T10:53:16.776Z,97269.63
2023-02-25T10:55:43.598Z,97266.13
2023-02-25T10:58:25.278Z,97260.72
2023-02-25T11:01:22.531Z,97261.50
2023-02-25T11:03:54.635Z,97263.94
2023-02-25T11:06:35.552Z,97258.44
2023-02-25T11:09:06.208Z,97268.63
2023-02-25T11:11:37.784Z,97262.97
2023-02-25T11:14:15.386Z,97269.84
2023-02-25T11:16:44.973Z,97265.22
2023-02-25T11:19:20.401Z,97264.88
2023-02-25T11:21:48.003Z,97281.22
2023-02-25T11:24:29.100Z,97272.88
2023-02-25T11:26:57.225Z,97276.66
2023-02-25T11:29:38.460Z,97284.69
2023-02-25T11:32:10.688Z,97285.66
2023-02-25T11:34:47.441Z,97280.28
2023-02-25T11:37:24.195Z,97268.97
2023-02-25T11:39:55.891Z,97272.09
2023-02-25T11:42:26.413Z,97264.41
2023-02-25T11:45:01.618Z,97266.50
2023-02-25T11:47:33.738Z,97266.69
2023-02-25T11:50:18.306Z,97269.56
2023-02-25T11:52:54.840Z,97269.13
2023-02-25T11:55:44.780Z,97269.69
2023-02-25T11:58:27.506Z,97268.28
2023-02-25T12:01:01.976Z,97269.41
2023-02-25T12:03:59.633Z,97269.63
2023-02-25T12:06:57.915Z,97262.09
2023-02-25T12:09:24.459Z,97267.41
2023-02-25T12:12:06.391Z,97277.31
2023-02-25T12:14:54.869Z,97270.56
2023-02-25T12:17:58.863Z,97273.03
2023-02-25T12:20:45.690Z,97267.31
2023-02-25T12:23:33.149Z,97273.34
2023-02-25T12:26:22.151Z,97271.59
2023-02-25T12:29:26.479Z,97274.03
2023-02-25T12:32:35.966Z,97278.06
2023-02-25T12:35:08.728Z,97276.34
2023-02-25T12:37:50.546Z,97273.72
2023-02-25T12:40:34.143Z,97285.31
2023-02-25T12:43:25.868Z,97276.50
2023-02-25T12:46:21.326Z,97278.06
2023-02-25T12:48:56.731Z,97279.47
2023-02-25T12:51:36.370Z,97275.97
2023-02-25T12:54:24.021Z,97276.38
2023-02-25T12:57:38.253Z,97287.91
2023-02-25T13:00:36.061Z,97293.44
2023-02-25T13:03:33.602Z,97294.69
2023-02-25T13:06:24.667Z,97296.34
2023-02-25T13:09:35.841Z,97299.63
2023-02-25T13:12:12.821Z,97296.75
2023-02-25T13:15:03.211Z,97302.84
2023-02-25T13:18:04.387Z,97301.88
2023-02-25T13:21:02.051Z,97309.03
2023-02-25T13:23:47.084Z,97308.41
2023-02-25T13:26:59.560Z,97333.34
2023-02-25T13:29:37.937Z,97345.06
2023-02-25T13:32:31.773Z,97342.19
2023-02-25T13:35:20.249Z,97349.84
2023-02-25T13:38:11.408Z,97352.44
2023-02-25T13:40:55.587Z,97359.50
2023-02-25T13:43:38.651Z,97354.22
2023-02-25T13:46:30.344Z,97354.22
2023-02-25T13:49:34.607Z,97350.66
2023-02-25T13:52:29.196Z,97348.88
2023-02-25T13:55:11.608Z,97354.81
2023-02-25T13:57:52.149Z,97347.66
2023-02-25T14:01:06.284Z,97361.25
2023-02-25T14:03:49.871Z,97355.16
2023-02-25T14:06:38.225Z,97360.81
2023-02-25T14:09:46.740Z,97362.41
2023-02-25T14:12:44.512Z,97366.00
2023-02-25T14:15:43.425Z,97370.44
2023-02-25T14:18:34.153Z,97373.16
2023-02-25T14:21:14.380Z,97371.31
2023-02-25T14:24:02.257Z,97370.75
2023-02-25T14:26:42.986Z,97380.00
2023-02-25T14:29:25.813Z,97375.28
2023-02-25T14:32:14.425Z,97390.09
2023-02-25T14:35:06.184Z,97406.34
2023-02-25T14:37:43.345Z,97410.47
2023-02-25T14:40:30.328Z,97414.22
2023-02-25T14:43:17.899Z,97430.78
2023-02-25T14:45:56.695Z,97438.63
2023-02-25T14:48:55.473Z,97445.44
2023-02-25T14:51:43.827Z,97446.28
2023-02-25T14:54:25.735Z,97455.81
2023-02-25T14:56:55.543Z,97459.25
2023-02-25T14:59:52.819Z,97463.63
2023-02-25T15:03:03.297Z,97464.50
2023-02-25T15:05:48.654Z,97466.16
2023-02-25T15:08:33.855Z,97464.22
2023-02-25T15:11:39.425Z,97458.97
2023-02-25T15:14:27.955Z,97460.72
2023-02-25T15:17:21.002Z,97462.56
2023-02-25T15:20:07.681Z,97473.84
2023-02-25T15:22:34.437Z,97477.41
2023-02-25T15:25:20.005Z,97480.91
2023-02-25T15:27:57.215Z,97487.81
2023-02-25T15:30:26.446Z,97499.06
2023-02-25T15:33:02.185Z,97497.44
2023-02-25T15:35:34.939Z,97512.28
2023-02-25T15:38:02.372Z,97521.00
2023-02-25T15:40:32.061Z,97533.13
2023-02-25T15:43:26.569Z,97531.41
2023-02-25T15:46:14.080Z,97540.06
2023-02-25T15:48:42.937Z,97550.41
2023-02-25T15:51:12.229Z,97560.78
2023-02-25T15:53:42.740Z,97563.41
2023-02-25T15:56:12.318Z,97566.00
2023-02-25T15:58:42.188Z,97573.78
2023-02-25T16:01:08.818Z,97584.97
2023-02-25T16:03:35.359Z,97573.78
2023-02-25T16:06:20.584Z,97587.56
2023-02-25T16:08:53.016Z,97592.75
2023-02-25T16:11:26.467Z,97589.31
2023-02-25T16:13:53.665Z,97588.41
2023-02-25T16:16:23.110Z,97591.03
2023-02-25T16:18:52.336Z,97603.94
2023-02-25T16:21:38.283Z,97604.81
2023-02-25T16:24:11.005Z,97608.25
2023-02-25T16:26:58.439Z,97608.25
2023-02-25T16:30:00.785Z,97613.44
2023-02-25T16:32:37.968Z,97620.34
2023-02-25T16:35:23.551Z,97631.53
2023-02-25T16:38:09.241Z,97637.56
2023-02-25T16:40:39.225Z,97636.72
2023-02-25T16:43:11.202Z,97628.97
2023-02-25T16:45:43.827Z,97638.47
2023-02-25T16:48:21.181Z,97639.31
2023-02-25T16:50:51.173Z,97647.91
2023-02-25T16:53:22.352Z,97645.34
2023-02-25T16:55:50.533Z,97659.13
2023-02-25T16:58:25.546Z,97659.16
2023-02-25T17:01:00.749Z,97663.47
2023-02-25T17:03:33.145Z,97661.72
2023-02-25T17:06:06.641Z,97674.69
2023-02-25T17:08:35.090Z,97671.22
2023-02-25T17:11:05.024Z,97672.09
2023-02-25T17:13:35.662Z,97682.44
2023-02-25T17:16:04.762Z,97693.66
2023-02-25T17:18:35.128Z,97688.47
2023-02-25T17:21:05.915Z,97703.06
2023-02-25T17:23:39.698Z,97703.84
2023-02-25T17:26:06.747Z,97713.34
2023-02-25T17:28:34.281Z,97701.19
2023-02-25T17:31:13.102Z,97711.56
2023-02-25T17:33:51.959Z,97710.63
2023-02-25T17:36:27.616Z,97711.50
2023-02-25T17:38:57.264Z,97718.34
2023-02-25T17:41:24.996Z,97714.03
2023-02-25T17:43:52.294Z,97722.66
2023-02-25T17:46:38.279Z,97725.31
2023-02-25T17:49:28.969Z,97733.88
2023-02-25T17:52:01.559Z,97729.66
2023-02-25T17:54:32.206Z,97742.59
2023-02-25T17:57:00.306Z,97751.16
2023-02-25T17:59:41.094Z,97753.78
2023-02-25T18:02:23.127Z,97764.97
2023-02-25T18:04:51.072Z,97758.94
2023-02-25T18:07:21.796Z,97768.38
2023-02-25T18:09:49.643Z,97758.81
2023-02-25T18:12:26.976Z,97762.22
2023-02-25T18:15:15.765Z,97770.81
2023-02-25T18:17:47.819Z,97771.69
2023-02-25T18:20:35.756Z,97769.09
2023-02-25T18:23:04.265Z,97769.09
2023-02-25T18:25:35.147Z,97773.44
2023-02-25T18:28:03.867Z,97782.94
2023-02-25T18:30:32.019Z,97779.47
2023-02-25T18:32:59.945Z,97784.75
2023-02-25T18:35:28.774Z,97783.91
2023-02-25T18:37:57.140Z,97783.09
2023-02-25T18:40:31.052Z,97794.94
2023-02-25T18:42:59.152Z,97802.63
2023-02-25T18:45:27.794Z,97795.72
2023-02-25T18:47:56.898Z,97794.00
2023-02-25T18:50:24.453Z,97797.44
2023-02-25T18:52:50.927Z,97806.06
2023-02-25T18:55:24.581Z,97813.81
2023-02-25T18:57:51.927Z,97801.81
2023-02-25T19:00:21.261Z,97806.94
2023-02-25T19:02:53.967Z,97806.13
2023-02-25T19:05:22.606Z,97809.56
2023-02-25T19:07:49.986Z,97813.81
2023-02-25T19:10:22.640Z,97809.56
2023-02-25T19:12:50.972Z,97813.75
2023-02-25T19:15:21.453Z,97806.88
2023-02-25T19:17:49.332Z,97814.56
2023-02-25T19:20:18.562Z,97819.69
2023-02-25T19:22:48.039Z,97822.22
2023-02-25T19:25:17.384Z,97821.28
2023-02-25T19:27:43.982Z,97828.19
2023-02-25T19:30:14.795Z,97825.53
2023-02-25T19:32:41.398Z,97822.09
2023-02-25T19:35:11.234Z,97832.47
2023-02-25T19:37:39.748Z,97829.09
2023-02-25T19:40:10.504Z,97836.81
2023-02-25T19:42:38.219Z,97836.00
2023-02-25T19:45:06.179Z,97843.78
2023-02-25T19:47:32.838Z,97844.66
2023-02-25T19:49:59.409Z,97856.78
2023-02-25T19:52:25.926Z,97856.81
2023-02-25T19:54:52.510Z,97867.13
2023-02-25T19:57:20.190Z,97862.81
2023-02-25T19:59:47.099Z,97873.13
2023-02-25T20:02:14.444Z,97874.06
2023-02-25T20:04:41.193Z,97879.19
2023-02-25T20:07:08.921Z,97874.06
2023-02-25T20:09:35.755Z,97871.38
2023-02-25T20:12:02.759Z,97878.31
2023-02-25T20:14:29.568Z,97878.31
2023-02-25T20:16:57.234Z,97877.38
2023-02-25T20:19:25.184Z,97878.22
2023-02-25T20:21:53.185Z,97875.66
2023-02-25T20:24:19.929Z,97879.09
2023-02-25T20:26:46.917Z,97890.28
2023-02-25T20:29:14.186Z,97890.28
2023-02-25T20:31:41.147Z,97889.34
2023-02-25T20:34:15.560Z,97892.00
2023-02-25T20:36:54.696Z,97893.72
2023-02-25T20:39:40.240Z,97892.00
2023-02-25T20:42:17.800Z,97903.22
2023-02-25T20:44:44.504Z,97904.06
2023-02-25T20:47:27.058Z,97914.47
2023-02-25T20:49:55.504Z,97921.41
2023-02-25T20:52:22.809Z,97928.88
2023-02-25T20:54:50.037Z,97928.84
2023-02-25T20:57:20.117Z,97925.41
2023-02-25T20:59:48.308Z,97941.38
2023-02-25T21:02:16.225Z,97943.13
2023-02-25T21:04:44.344Z,97941.22
2023-02-25T21:07:11.659Z,97944.72
2023-02-25T21:09:38.337Z,97943.78
2023-02-25T21:12:05.321Z,97939.47
2023-02-25T21:14:31.988Z,97942.84
2023-02-25T21:16:58.625Z,97942.69
2023-02-25T21:19:28.301Z,97944.28
2023-02-25T21:21:55.713Z,97944.22
2023-02-25T21:24:22.840Z,97942.28
2023-02-25T21:26:49.716Z,97949.28
2023-02-25T21:29:16.528Z,97954.38
2023-02-25T21:31:43.511Z,97954.38
2023-02-25T21:34:13.081Z,97957.94
2023-02-25T21:36:40.927Z,97953.63
2023-02-25T21:39:09.511Z,97961.34
2023-02-25T21:41:38.420Z,97963.09
2023-02-25T21:44:05.453Z,97965.69
2023-02-25T21:46:32.646Z,97975.13
2023-02-25T21:48:59.719Z,97970.09
2023-02-25T21:51:28.365Z,97968.38
2023-02-25T21:53:56.626Z,97976.97
2023-02-25T21:56:24.553Z,97970.22
2023-02-25T21:58:56.043Z,97975.41
2023-02-25T22:01:31.730Z,97972.81
2023-02-25T22:03:58.877Z,97976.28
2023-02-25T22:06:26.999Z,97982.16
2023-02-25T22:08:54.378Z,97982.34
2023-02-25T22:11:23.635Z,97982.38
2023-02-25T22:13:50.934Z,97982.44
2023-02-25T22:16:18.075Z,97978.03
2023-02-25T22:18:45.020Z,97985.81
2023-02-25T22:21:14.954Z,97987.50
2023-02-25T22:23:45.877Z,97978.03
2023-02-25T22:26:15.222Z,97982.34
2023-02-25T22:28:42.645Z,97981.53
2023-02-25T22:31:11.540Z,97985.88
2023-02-25T22:33:39.009Z,97985.81
2023-02-25T22:36:06.833Z,97988.50
2023-02-25T22:38:36.539Z,97991.09
2023-02-25T22:41:04.550Z,97993.59
2023-02-25T22:43:31.886Z,97996.22
2023-02-25T22:46:10.331Z,98003.97
2023-02-25T22:48:38.722Z,98001.41
2023-02-25T22:51:05.977Z,98000.59
2023-02-25T22:53:32.917Z,98008.28
2023-02-25T22:56:01.485Z,98007.44
2023-02-25T22:58:28.745Z,98017.78
2023-02-25T23:00:55.598Z,98010.06
2023-02-25T23:03:22.811Z,98012.69
2023-02-25T23:05:49.873Z,98015.25
2023-02-25T23:08:17.427Z,98015.28
2023-02-25T23:10:44.774Z,98011.84
2023-02-25T23:13:11.669Z,98020.44
2023-02-25T23:15:40.305Z,98016.09
2023-02-25T23:18:09.120Z,98020.38
2023-02-25T23:20:38.681Z,98025.44
2023-02-25T23:23:07.061Z,98024.59
2023-02-25T23:25:40.607Z,98026.34
2023-02-25T23:28:09.455Z,98035.78
2023-02-25T23:30:37.932Z,98033.19
2023-02-25T23:33:05.413Z,98034.97
2023-02-25T23:35:33.540Z,98044.41
2023-02-25T23:38:00.753Z,98041.81
2023-02-25T23:40:29.176Z,98037.53
2023-02-25T23:42:56.273Z,98041.00
2023-02-25T23:45:23.201Z,98041.91
2023-02-25T23:47:50.091Z,98047.09
2023-02-25T23:50:17.192Z,98036.75
2023-02-25T23:52:45.450Z,98039.31
2023-02-25T23:55:13.800Z,98047.97
2023-02-25T23:57:40.784Z,98050.41
